createdAt,value
2019-06-20T00:02:08.093Z,20.27
2019-06-20T00:04:35.445Z,20.26
2019-06-20T00:07:02.816Z,20.24
2019-06-20T00:09:30.137Z,20.02
2019-06-20T00:11:57.551Z,20.03
2019-06-20T00:14:24.877Z,20.23
2019-06-20T00:16:52.215Z,20.06
2019-06-20T00:19:19.571Z,20.13
2019-06-20T00:21:46.923Z,20.08
2019-06-20T00:24:14.265Z,20.01
2019-06-20T00:26:41.605Z,19.87
2019-06-20T00:29:08.941Z,20.05
2019-06-20T00:31:36.264Z,19.79
2019-06-20T00:34:03.646Z,19.82
2019-06-20T00:36:30.998Z,19.96
2019-06-20T00:38:58.314Z,20.09
2019-06-20T00:41:25.675Z,19.88
2019-06-20T00:43:53.012Z,20.12
2019-06-20T00:46:20.316Z,20.09
2019-06-20T00:48:47.700Z,19.87
2019-06-20T00:51:15.069Z,19.89
2019-06-20T00:53:42.392Z,19.97
2019-06-20T00:56:09.798Z,19.79
2019-06-20T00:58:37.188Z,19.80
2019-06-20T01:01:05.260Z,19.75
2019-06-20T01:03:32.649Z,19.64
2019-06-20T01:05:59.990Z,19.79
2019-06-20T01:08:27.333Z,19.79
2019-06-20T01:10:54.724Z,19.87
2019-06-20T01:13:33.138Z,19.87
2019-06-20T01:15:51.371Z,19.85
2019-06-20T01:18:18.742Z,19.81
2019-06-20T01:20:46.098Z,19.71
2019-06-20T01:23:13.447Z,19.52
2019-06-20T01:25:42.348Z,19.27
2019-06-20T01:28:09.789Z,19.32
2019-06-20T01:30:37.656Z,19.20
2019-06-20T01:33:05.180Z,19.24
2019-06-20T01:35:32.512Z,19.08
2019-06-20T01:37:59.848Z,19.29
2019-06-20T01:40:27.248Z,18.97
2019-06-20T01:42:54.566Z,19.01
2019-06-20T01:45:22.001Z,19.08
2019-06-20T01:47:49.375Z,19.03
2019-06-20T01:50:16.732Z,18.76
2019-06-20T01:52:44.058Z,18.46
2019-06-20T01:55:12.904Z,18.76
2019-06-20T01:57:40.254Z,18.86
2019-06-20T02:00:09.824Z,18.87
2019-06-20T02:02:37.202Z,18.85
2019-06-20T02:05:05.511Z,18.77
2019-06-20T02:07:32.865Z,18.92
2019-06-20T02:10:00.250Z,18.96
2019-06-20T02:12:27.572Z,18.69
2019-06-20T02:14:54.886Z,18.50
2019-06-20T02:17:22.265Z,18.21
2019-06-20T02:19:49.644Z,18.34
2019-06-20T02:22:16.944Z,18.29
2019-06-20T02:24:44.379Z,18.15
2019-06-20T02:27:11.718Z,18.13
2019-06-20T02:29:39.071Z,18.27
2019-06-20T02:32:06.449Z,18.25
2019-06-20T02:34:33.788Z,18.08
2019-06-20T02:37:01.153Z,18.30
2019-06-20T02:39:28.543Z,18.34
2019-06-20T02:41:55.880Z,18.18
2019-06-20T02:44:29.738Z,18.38
2019-06-20T02:46:52.507Z,18.32
2019-06-20T02:49:19.829Z,18.36
2019-06-20T02:51:48.004Z,18.12
2019-06-20T02:54:15.371Z,18.58
2019-06-20T02:56:42.724Z,18.49
2019-06-20T02:59:10.073Z,18.51
2019-06-20T03:01:37.488Z,18.57
2019-06-20T03:04:04.826Z,18.39
2019-06-20T03:06:32.155Z,18.43
2019-06-20T03:08:59.521Z,18.53
2019-06-20T03:11:26.852Z,18.55
2019-06-20T03:13:54.166Z,18.51
2019-06-20T03:16:21.545Z,18.51
2019-06-20T03:18:48.930Z,18.35
2019-06-20T03:21:16.257Z,18.15
2019-06-20T03:23:43.649Z,18.17
2019-06-20T03:26:10.990Z,17.69
2019-06-20T03:28:38.332Z,17.95
2019-06-20T03:31:05.709Z,17.83
2019-06-20T03:33:33.135Z,17.65
2019-06-20T03:36:00.444Z,17.89
2019-06-20T03:38:27.931Z,18.13
2019-06-20T03:40:55.312Z,18.35
2019-06-20T03:43:22.779Z,18.63
2019-06-20T03:45:50.132Z,18.70
2019-06-20T03:48:17.475Z,18.71
2019-06-20T03:50:44.895Z,18.77
2019-06-20T03:53:12.261Z,18.86
2019-06-20T03:55:39.629Z,18.91
2019-06-20T03:58:06.964Z,18.92
2019-06-20T04:00:34.952Z,18.72
2019-06-20T04:03:04.362Z,18.93
2019-06-20T04:05:31.680Z,18.90
2019-06-20T04:07:59.042Z,19.01
2019-06-20T04:10:26.402Z,18.98
2019-06-20T04:12:53.707Z,18.93
2019-06-20T04:15:21.068Z,18.97
2019-06-20T04:17:48.422Z,19.11
2019-06-20T04:20:15.856Z,19.01
2019-06-20T04:22:43.243Z,18.96
2019-06-20T04:25:10.566Z,18.90
2019-06-20T04:27:37.925Z,18.93
2019-06-20T04:30:05.522Z,18.96
2019-06-20T04:32:32.825Z,18.90
2019-06-20T04:35:00.173Z,18.95
2019-06-20T04:37:27.560Z,18.84
2019-06-20T04:39:54.916Z,18.67
2019-06-20T04:42:22.428Z,18.72
2019-06-20T04:44:51.385Z,18.66
2019-06-20T04:47:18.714Z,18.41
2019-06-20T04:49:45.991Z,18.51
2019-06-20T04:52:13.377Z,18.49
2019-06-20T04:54:40.681Z,18.48
2019-06-20T04:57:08.020Z,18.42
2019-06-20T04:59:35.420Z,18.52
2019-06-20T05:02:02.746Z,18.46
2019-06-20T05:04:30.237Z,18.28
2019-06-20T05:07:04.626Z,18.29
2019-06-20T05:09:31.978Z,18.23
2019-06-20T05:11:59.329Z,18.13
2019-06-20T05:14:26.693Z,18.28
2019-06-20T05:16:54.037Z,18.15
2019-06-20T05:19:21.389Z,18.20
2019-06-20T05:21:48.762Z,18.36
2019-06-20T05:24:16.126Z,18.35
2019-06-20T05:26:43.554Z,18.42
2019-06-20T05:29:10.946Z,18.48
2019-06-20T05:31:38.295Z,18.34
2019-06-20T05:34:05.594Z,18.72
2019-06-20T05:36:32.968Z,18.67
2019-06-20T05:39:00.360Z,18.91
2019-06-20T05:41:27.770Z,18.93
2019-06-20T05:43:55.173Z,19.03
2019-06-20T05:46:22.508Z,19.14
2019-06-20T05:48:49.829Z,19.14
2019-06-20T05:51:17.208Z,19.33
2019-06-20T05:53:44.644Z,19.35
2019-06-20T05:56:11.975Z,19.30
2019-06-20T05:58:39.368Z,19.15
2019-06-20T06:01:06.796Z,19.28
2019-06-20T06:03:35.166Z,19.26
2019-06-20T06:06:02.546Z,19.06
2019-06-20T06:08:29.907Z,19.12
2019-06-20T06:10:57.241Z,18.83
2019-06-20T06:13:24.595Z,18.95
2019-06-20T06:15:51.971Z,18.95
2019-06-20T06:18:19.408Z,19.04
2019-06-20T06:20:46.765Z,19.10
2019-06-20T06:23:14.173Z,19.17
2019-06-20T06:25:41.995Z,19.39
2019-06-20T06:28:12.365Z,19.64
2019-06-20T06:30:38.697Z,19.64
2019-06-20T06:33:06.026Z,19.50
2019-06-20T06:35:33.347Z,19.71
2019-06-20T06:38:00.732Z,19.73
2019-06-20T06:40:28.183Z,19.67
2019-06-20T06:42:55.479Z,19.67
2019-06-20T06:45:23.048Z,19.85
2019-06-20T06:47:50.376Z,19.97
2019-06-20T06:50:17.841Z,20.03
2019-06-20T06:52:45.332Z,20.50
2019-06-20T06:55:13.470Z,20.42
2019-06-20T06:57:40.791Z,20.34
2019-06-20T07:00:09.303Z,20.62
2019-06-20T07:02:36.636Z,20.52
2019-06-20T07:05:04.413Z,20.80
2019-06-20T07:07:31.815Z,20.83
2019-06-20T07:09:59.216Z,20.97
2019-06-20T07:12:26.623Z,20.70
2019-06-20T07:14:54.020Z,20.93
2019-06-20T07:17:21.349Z,20.93
2019-06-20T07:19:48.683Z,20.85
2019-06-20T07:22:16.066Z,21.18
2019-06-20T07:24:43.407Z,21.26
2019-06-20T07:27:10.768Z,21.32
2019-06-20T07:29:38.153Z,21.54
2019-06-20T07:32:05.499Z,21.35
2019-06-20T07:34:32.847Z,21.46
2019-06-20T07:37:00.241Z,21.48
2019-06-20T07:39:27.532Z,21.63
2019-06-20T07:41:54.870Z,21.54
2019-06-20T07:44:22.271Z,21.47
2019-06-20T07:46:49.641Z,21.71
2019-06-20T07:49:17.042Z,21.78
2019-06-20T07:51:44.449Z,21.87
2019-06-20T07:54:11.787Z,21.96
2019-06-20T07:56:39.140Z,22.27
2019-06-20T07:59:06.533Z,22.08
2019-06-20T08:01:33.866Z,22.46
2019-06-20T08:04:01.236Z,22.30
2019-06-20T08:06:28.609Z,22.47
2019-06-20T08:08:55.985Z,22.11
2019-06-20T08:11:23.300Z,22.54
2019-06-20T08:13:50.688Z,22.67
2019-06-20T08:16:18.079Z,22.73
2019-06-20T08:18:45.472Z,22.36
2019-06-20T08:21:12.946Z,22.57
2019-06-20T08:23:40.323Z,22.90
2019-06-20T08:26:07.816Z,22.88
2019-06-20T08:28:35.217Z,23.10
2019-06-20T08:31:02.679Z,23.04
2019-06-20T08:33:30.088Z,23.28
2019-06-20T08:35:58.738Z,22.85
2019-06-20T08:38:26.785Z,22.87
2019-06-20T08:40:56.547Z,23.09
2019-06-20T08:43:23.534Z,23.03
2019-06-20T08:45:50.915Z,23.34
2019-06-20T08:48:19.588Z,23.07
2019-06-20T08:50:46.968Z,23.33
2019-06-20T08:53:14.317Z,23.60
2019-06-20T08:55:41.676Z,23.31
2019-06-20T08:58:09.131Z,23.38
2019-06-20T09:00:38.444Z,23.43
2019-06-20T09:03:06.627Z,23.51
2019-06-20T09:05:34.197Z,23.49
2019-06-20T09:10:36.709Z,23.22
2019-06-20T09:13:04.718Z,23.30
2019-06-20T09:15:32.080Z,23.47
2019-06-20T09:18:00.653Z,23.85
2019-06-20T09:20:28.656Z,23.71
2019-06-20T09:22:56.761Z,24.03
2019-06-20T09:25:24.282Z,24.12
2019-06-20T09:27:52.864Z,24.02
2019-06-20T09:30:21.107Z,23.92
2019-06-20T09:32:48.644Z,23.94
2019-06-20T09:35:17.765Z,24.05
2019-06-20T09:37:45.178Z,24.49
2019-06-20T09:40:12.897Z,24.59
2019-06-20T09:42:40.269Z,24.79
2019-06-20T09:45:08.117Z,24.74
2019-06-20T09:47:35.567Z,24.71
2019-06-20T09:50:06.928Z,24.90
2019-06-20T09:52:34.287Z,24.55
2019-06-20T09:55:01.758Z,24.86
2019-06-20T09:57:29.174Z,25.13
2019-06-20T10:00:07.887Z,25.25
2019-06-20T10:02:25.868Z,25.18
2019-06-20T10:04:54.466Z,25.63
2019-06-20T10:07:22.297Z,25.43
2019-06-20T10:09:49.956Z,25.62
2019-06-20T10:12:17.322Z,25.96
2019-06-20T10:14:45.454Z,25.60
2019-06-20T10:17:13.961Z,25.89
2019-06-20T10:19:41.386Z,25.33
2019-06-20T10:22:09.706Z,24.94
2019-06-20T10:24:37.085Z,24.94
2019-06-20T10:27:04.440Z,25.30
2019-06-20T10:29:31.772Z,25.23
2019-06-20T10:31:59.216Z,25.17
2019-06-20T10:34:26.565Z,25.34
2019-06-20T10:36:53.907Z,25.22
2019-06-20T10:39:21.277Z,25.46
2019-06-20T10:41:48.677Z,25.54
2019-06-20T10:44:17.246Z,25.25
2019-06-20T10:46:46.142Z,25.21
2019-06-20T10:49:13.917Z,25.85
2019-06-20T10:51:44.213Z,25.71
2019-06-20T10:54:12.717Z,25.70
2019-06-20T10:56:40.473Z,26.19
2019-06-20T10:59:09.319Z,26.24
2019-06-20T11:01:36.812Z,26.28
2019-06-20T11:04:04.887Z,26.33
2019-06-20T11:06:32.414Z,26.43
2019-06-20T11:08:59.805Z,26.15
2019-06-20T11:11:27.203Z,26.23
2019-06-20T11:13:54.593Z,26.74
2019-06-20T11:16:22.044Z,26.88
2019-06-20T11:18:49.438Z,26.75
2019-06-20T11:21:16.886Z,26.48
2019-06-20T11:23:45.241Z,26.28
2019-06-20T11:26:12.907Z,26.00
2019-06-20T11:28:41.423Z,25.88
2019-06-20T11:31:09.200Z,25.93
2019-06-20T11:33:38.538Z,26.36
2019-06-20T11:36:05.970Z,26.65
2019-06-20T11:38:33.444Z,26.25
2019-06-20T11:41:00.848Z,26.74
2019-06-20T11:43:28.305Z,26.88
2019-06-20T11:45:55.824Z,27.68
2019-06-20T11:48:23.256Z,27.63
2019-06-20T11:50:50.691Z,27.66
2019-06-20T11:53:18.120Z,27.83
2019-06-20T11:55:45.655Z,27.94
2019-06-20T11:58:13.074Z,28.26
2019-06-20T12:00:40.589Z,28.09
2019-06-20T12:03:08.015Z,28.01
2019-06-20T12:05:35.662Z,27.46
2019-06-20T12:08:03.217Z,26.85
2019-06-20T12:10:30.666Z,28.19
2019-06-20T12:12:58.140Z,28.41
2019-06-20T12:15:25.622Z,27.88
2019-06-20T12:17:53.026Z,27.04
2019-06-20T12:20:22.872Z,26.63
2019-06-20T12:22:50.925Z,26.30
2019-06-20T12:25:18.612Z,26.17
2019-06-20T12:27:47.523Z,26.20
2019-06-20T12:30:17.823Z,26.02
2019-06-20T12:32:46.681Z,25.97
2019-06-20T12:35:14.845Z,26.00
2019-06-20T12:37:42.718Z,26.23
2019-06-20T12:40:11.170Z,26.88
2019-06-20T12:42:41.480Z,27.35
2019-06-20T12:45:09.476Z,26.15
2019-06-20T12:47:38.235Z,25.57
2019-06-20T12:50:06.315Z,25.14
2019-06-20T12:52:33.826Z,24.70
2019-06-20T12:55:01.271Z,25.60
2019-06-20T12:57:28.752Z,26.02
2019-06-20T12:59:56.265Z,25.21
2019-06-20T13:02:24.788Z,25.97
2019-06-20T13:04:52.273Z,25.61
2019-06-20T13:07:19.743Z,27.13
2019-06-20T13:09:48.357Z,26.63
2019-06-20T13:12:16.067Z,25.76
2019-06-20T13:14:45.577Z,26.36
2019-06-20T13:17:12.982Z,25.58
2019-06-20T13:19:41.979Z,26.01
2019-06-20T13:22:09.616Z,25.79
2019-06-20T13:24:37.937Z,25.19
2019-06-20T13:27:06.493Z,24.86
2019-06-20T13:29:34.043Z,24.74
2019-06-20T13:32:04.223Z,24.96
2019-06-20T13:34:30.894Z,24.96
2019-06-20T13:36:58.362Z,23.88
2019-06-20T13:39:25.822Z,23.88
2019-06-20T13:41:53.291Z,24.17
2019-06-20T13:44:21.773Z,24.32
2019-06-20T13:46:49.434Z,24.54
2019-06-20T13:49:16.930Z,24.24
2019-06-20T13:51:45.768Z,23.61
2019-06-20T13:54:13.526Z,23.95
2019-06-20T13:56:42.278Z,22.87
2019-06-20T13:59:10.369Z,22.07
2019-06-20T14:01:37.838Z,21.76
2019-06-20T14:04:05.398Z,20.66
2019-06-20T14:06:32.884Z,20.54
2019-06-20T14:09:00.348Z,19.61
2019-06-20T14:11:27.787Z,19.62
2019-06-20T14:13:55.343Z,19.44
2019-06-20T14:16:22.826Z,20.16
2019-06-20T14:18:50.348Z,20.57
2019-06-20T14:21:17.901Z,21.93
2019-06-20T14:23:46.175Z,21.13
2019-06-20T14:26:13.860Z,21.30
2019-06-20T14:28:41.615Z,20.75
2019-06-20T14:31:10.398Z,20.26
2019-06-20T14:33:37.806Z,20.04
2019-06-20T14:36:05.297Z,20.44
2019-06-20T14:38:32.720Z,20.53
2019-06-20T14:41:00.285Z,20.76
2019-06-20T14:43:27.746Z,20.94
2019-06-20T14:45:56.444Z,20.87
2019-06-20T14:48:25.385Z,20.74
2019-06-20T14:50:53.404Z,20.44
2019-06-20T14:53:21.068Z,20.28
2019-06-20T14:55:49.733Z,20.70
2019-06-20T14:58:17.347Z,20.66
2019-06-20T15:00:46.216Z,20.72
2019-06-20T15:03:14.004Z,20.41
2019-06-20T15:05:41.830Z,20.57
2019-06-20T15:08:09.423Z,20.36
2019-06-20T15:10:36.969Z,20.52
2019-06-20T15:13:04.466Z,20.13
2019-06-20T15:15:31.972Z,19.89
2019-06-20T15:17:59.446Z,19.71
2019-06-20T15:20:27.013Z,19.75
2019-06-20T15:22:54.741Z,19.57
2019-06-20T15:25:22.473Z,19.41
2019-06-20T15:27:51.979Z,19.38
2019-06-20T15:30:19.456Z,18.91
2019-06-20T15:32:59.212Z,19.11
2019-06-20T15:35:17.031Z,18.33
2019-06-20T15:37:44.644Z,18.24
2019-06-20T15:40:12.170Z,17.59
2019-06-20T15:42:39.628Z,17.68
2019-06-20T15:45:07.190Z,17.68
2019-06-20T15:47:34.707Z,17.63
2019-06-20T15:50:02.813Z,17.47
2019-06-20T15:52:30.455Z,17.04
2019-06-20T15:54:57.868Z,17.27
2019-06-20T15:57:25.389Z,16.93
2019-06-20T15:59:52.895Z,16.74
2019-06-20T16:02:20.361Z,16.28
2019-06-20T16:04:47.780Z,16.65
2019-06-20T16:07:16.383Z,16.79
2019-06-20T16:09:43.826Z,16.97
2019-06-20T16:12:11.307Z,16.34
2019-06-20T16:14:38.781Z,16.71
2019-06-20T16:17:06.301Z,16.67
2019-06-20T16:19:33.810Z,16.56
2019-06-20T16:22:01.242Z,16.84
2019-06-20T16:24:28.680Z,16.33
2019-06-20T16:26:56.133Z,16.35
2019-06-20T16:29:23.598Z,17.18
2019-06-20T16:31:51.066Z,16.48
2019-06-20T16:34:18.574Z,16.74
2019-06-20T16:36:46.047Z,17.26
2019-06-20T16:39:13.501Z,17.03
2019-06-20T16:41:41.039Z,16.78
2019-06-20T16:44:08.634Z,16.87
2019-06-20T16:46:36.180Z,17.15
2019-06-20T16:49:03.827Z,16.73
2019-06-20T16:51:31.315Z,16.86
2019-06-20T16:53:58.856Z,16.54
2019-06-20T16:56:26.401Z,17.00
2019-06-20T16:58:53.861Z,16.57
2019-06-20T17:01:21.365Z,16.79
2019-06-20T17:03:48.940Z,17.29
2019-06-20T17:06:16.465Z,17.12
2019-06-20T17:08:43.981Z,16.59
2019-06-20T17:11:11.579Z,17.02
2019-06-20T17:13:39.091Z,16.52
2019-06-20T17:16:06.604Z,16.77
2019-06-20T17:18:34.151Z,17.08
2019-06-20T17:21:01.595Z,16.74
2019-06-20T17:23:29.146Z,17.00
2019-06-20T17:25:56.672Z,17.18
2019-06-20T17:28:25.747Z,17.34
2019-06-20T17:30:53.195Z,16.83
2019-06-20T17:33:21.439Z,16.90
2019-06-20T17:35:48.905Z,16.71
2019-06-20T17:38:16.602Z,16.84
2019-06-20T17:40:44.271Z,17.05
2019-06-20T17:43:16.580Z,16.59
2019-06-20T17:45:44.199Z,17.03
2019-06-20T17:48:12.084Z,16.75
2019-06-20T17:50:39.645Z,16.70
2019-06-20T17:53:10.415Z,16.75
2019-06-20T17:55:38.063Z,16.58
2019-06-20T17:58:05.652Z,16.92
2019-06-20T18:00:34.393Z,16.65
2019-06-20T18:03:02.005Z,16.49
2019-06-20T18:05:29.743Z,16.38
2019-06-20T18:07:57.450Z,16.61
2019-06-20T18:10:26.046Z,16.57
2019-06-20T18:12:53.848Z,16.57
2019-06-20T18:15:21.795Z,16.57
2019-06-20T18:17:49.511Z,16.77
2019-06-20T18:20:17.757Z,16.57
2019-06-20T18:22:45.581Z,16.70
2019-06-20T18:25:13.408Z,17.29
2019-06-20T18:27:41.177Z,16.66
2019-06-20T18:30:08.974Z,16.76
2019-06-20T18:32:36.667Z,16.82
2019-06-20T18:35:05.284Z,16.77
2019-06-20T18:37:33.128Z,16.87
2019-06-20T18:40:02.284Z,16.60
2019-06-20T18:42:30.358Z,17.18
2019-06-20T18:44:58.243Z,16.87
2019-06-20T18:47:26.273Z,16.64
2019-06-20T18:49:54.100Z,16.37
2019-06-20T18:52:22.069Z,17.07
2019-06-20T18:54:50.115Z,16.61
2019-06-20T18:57:18.546Z,16.51
2019-06-20T18:59:46.541Z,17.11
2019-06-20T19:02:14.577Z,16.57
2019-06-20T19:04:49.426Z,16.37
2019-06-20T19:07:12.426Z,16.71
2019-06-20T19:09:41.581Z,16.83
2019-06-20T19:12:09.767Z,17.20
2019-06-20T19:14:37.721Z,16.63
2019-06-20T19:17:05.613Z,17.41
2019-06-20T19:19:33.345Z,17.40
2019-06-20T19:22:01.435Z,17.20
2019-06-20T19:24:29.462Z,17.28
2019-06-20T19:26:57.364Z,17.22
2019-06-20T19:29:25.366Z,17.45
2019-06-20T19:31:53.324Z,17.40
2019-06-20T19:34:21.352Z,16.49
2019-06-20T19:36:49.491Z,16.56
2019-06-20T19:39:17.462Z,16.56
2019-06-20T19:41:45.607Z,16.80
2019-06-20T19:44:13.462Z,16.62
2019-06-20T19:46:41.344Z,16.09
2019-06-20T19:49:09.241Z,16.11
2019-06-20T19:51:37.231Z,16.23
2019-06-20T19:54:05.144Z,16.52
2019-06-20T19:56:32.885Z,16.95
2019-06-20T19:59:00.656Z,16.66
2019-06-20T20:01:28.621Z,16.43
2019-06-20T20:03:56.595Z,17.16
2019-06-20T20:06:24.606Z,16.55
2019-06-20T20:08:52.667Z,16.29
2019-06-20T20:11:20.566Z,16.44
2019-06-20T20:13:48.428Z,16.13
2019-06-20T20:16:16.462Z,15.96
2019-06-20T20:18:44.270Z,15.54
2019-06-20T20:21:11.965Z,15.49
2019-06-20T20:23:39.886Z,15.23
2019-06-20T20:26:08.813Z,16.18
2019-06-20T20:28:36.922Z,16.32
2019-06-20T20:31:04.724Z,16.41
2019-06-20T20:33:32.590Z,16.28
2019-06-20T20:36:02.060Z,16.10
2019-06-20T20:38:29.885Z,15.39
2019-06-20T20:40:57.839Z,14.95
2019-06-20T20:43:25.601Z,15.17
2019-06-20T20:45:54.099Z,15.27
2019-06-20T20:48:21.588Z,15.87
2019-06-20T20:50:49.158Z,15.62
2019-06-20T20:53:16.671Z,14.99
2019-06-20T20:55:44.119Z,15.44
2019-06-20T20:58:11.549Z,15.14
2019-06-20T21:00:55.818Z,15.65
2019-06-20T21:03:23.168Z,15.25
2019-06-20T21:05:51.766Z,15.62
2019-06-20T21:08:19.464Z,14.96
2019-06-20T21:10:46.845Z,15.28
2019-06-20T21:13:14.200Z,15.36
2019-06-20T21:15:41.611Z,15.80
2019-06-20T21:18:08.983Z,15.38
2019-06-20T21:20:36.376Z,15.23
2019-06-20T21:23:03.833Z,15.19
2019-06-20T21:25:32.259Z,15.05
2019-06-20T21:28:00.034Z,15.10
2019-06-20T21:30:28.933Z,15.25
2019-06-20T21:32:56.314Z,15.01
2019-06-20T21:35:23.718Z,15.61
2019-06-20T21:37:51.142Z,15.75
2019-06-20T21:40:18.637Z,15.26
2019-06-20T21:42:46.013Z,15.58
2019-06-20T21:45:13.498Z,14.87
2019-06-20T21:47:40.835Z,14.88
2019-06-20T21:50:08.413Z,14.89
2019-06-20T21:52:35.841Z,15.48
2019-06-20T21:55:03.896Z,15.10
2019-06-20T21:57:31.286Z,15.37
2019-06-20T21:59:58.698Z,15.29
2019-06-20T22:02:26.183Z,14.83
2019-06-20T22:04:54.820Z,14.98
2019-06-20T22:07:22.676Z,15.16
2019-06-20T22:09:50.058Z,15.16
2019-06-20T22:12:17.418Z,15.01
2019-06-20T22:14:44.834Z,15.48
2019-06-20T22:17:12.192Z,15.02
2019-06-20T22:19:39.583Z,15.59
2019-06-20T22:22:06.983Z,15.95
2019-06-20T22:24:34.322Z,16.03
2019-06-20T22:27:01.693Z,15.44
2019-06-20T22:29:29.093Z,15.37
2019-06-20T22:31:56.453Z,15.16
2019-06-20T22:34:23.793Z,15.16
2019-06-20T22:36:51.202Z,15.31
2019-06-20T22:39:18.572Z,15.14
2019-06-20T22:41:45.963Z,15.21
2019-06-20T22:44:13.453Z,15.25
2019-06-20T22:46:40.821Z,15.65
2019-06-20T22:49:08.176Z,15.63
2019-06-20T22:51:35.587Z,15.86
2019-06-20T22:54:03.997Z,15.69
2019-06-20T22:56:31.413Z,15.26
2019-06-20T22:58:58.813Z,15.34
2019-06-20T23:01:26.192Z,15.33
2019-06-20T23:03:53.572Z,15.07
2019-06-20T23:06:21.013Z,15.26
2019-06-20T23:08:48.369Z,15.64
2019-06-20T23:11:15.708Z,15.91
2019-06-20T23:13:43.132Z,15.94
2019-06-20T23:16:10.479Z,15.35
2019-06-20T23:18:37.829Z,14.95
2019-06-20T23:21:05.390Z,14.74
2019-06-20T23:23:32.835Z,14.75
2019-06-20T23:26:02.266Z,15.02
2019-06-20T23:28:29.680Z,15.22
2019-06-20T23:30:57.056Z,15.41
2019-06-20T23:33:24.520Z,14.80
2019-06-20T23:35:51.912Z,15.02
2019-06-20T23:38:19.274Z,14.91
2019-06-20T23:40:46.612Z,14.74
2019-06-20T23:43:14.015Z,14.67
2019-06-20T23:45:41.397Z,14.95
2019-06-20T23:48:08.758Z,15.03
2019-06-20T23:50:36.172Z,14.69
2019-06-20T23:53:18.628Z,15.03
2019-06-20T23:55:46.135Z,15.02
2019-06-20T23:58:13.496Z,14.95
